Tiempo atmosférico en la estación meteorológica de Villamayor de los Montes, Burgos (882 m.)



Fecha
DESCASC
Temp. máxima en grados centígrados (hora)
DESCASC
Temp. mínima en grados centígrados (hora)
DESCASC
Temp. media en grados centígrados
DESCASC
Racha de viento máxima en m/sg (hora)
DESCASC
Velocidad máxima media en intervalos de 10 minutos(hora)
DESCASC
Precipitaciones diarias en mm
DESCASC
Precipitaciones de 00:00 a 06:00 en mm
DESCASC
Precipitaciones de 06:00 a 12:00 en mm
DESCASC
Precipitaciones de 12:00 a 18:00 en mm
DESCASC
Precipitaciones de 18:00 a 24:00 en mm
DESCASC
10-11-2019 5.3 (13:10) -0.2 (00:00) 2.6 9.72 (15:10) 5.28 (14:30) 3.2 0 0 3.2 0
09-11-2019 7.3 (17:20) 2.4 (00:00) 4.9 10 (22:30) 5.83 (12:40) 0.8 0 0.8 0 0
08-11-2019 8.8 (15:40) 0.5 (00:00) 4.7 13.33 (15:10) 5.83 (13:40) 0 0 0 0 0
07-11-2019 9 (04:10) 0.7 (00:00) 4.8 11.94 (13:50) 6.11 (00:20) 0.4 0 0 0.4 0
06-11-2019 10.8 (15:30) 2.7 (00:00) 6.8 9.44 (22:10) 6.39 (22:00) 0.2 0 0 0 0.2
05-11-2019 9.9 (14:00) 3.5 (00:00) 6.7 12.78 (13:40) 6.11 (14:20) 0.6 0 0 0.6 0
04-11-2019 12 (13:30) 5.8 (00:00) 8.9 17.5 (13:10) 10.83 (12:40) 1.6 0 0 1.6 0
03-11-2019 13 (16:20) 7.3 (00:00) 10.2 17.78 (02:10) 11.39 (01:50) 2.2 1.2 0 0 1
02-11-2019 15 (13:00) 10.8 (00:00) 12.9 14.17 (23:59) 7.5 (23:50) 0 0 0 0 0
01-11-2019 17.5 (15:50) 13 (00:00) 15.3 13.61 (16:40) 7.5 (16:40) 1 0 0 1 0
31-10-2019 18.1 (15:10) 11.9 (08:20) 15 6.39 (01:10) 4.17 (01:10) 0 0 0 0 0
30-10-2019 15.3 (14:40) 8.9 (00:00) 12.1 7.78 (15:10) 4.72 (15:20) 0.4 0 0 0.4 0
29-10-2019 17.1 (16:10) 8.8 (00:00) 13 6.39 (16:20) 4.17 (16:20) 0 0 0 0 0
28-10-2019 20.9 (16:10) 10.5 (00:00) 15.7 4.72 (13:00) 2.78 (10:00) 0 0 0 0 0
27-10-2019 19.6 (15:00) 7.1 (00:00) 13.4 3.89 (14:20) 2.22 (14:20) 0 0 0 0 0
26-10-2019 21.3 (16:50) 6.5 (00:00) 13.9 6.11 (14:50) 3.61 (11:40) 0 0 0 0 0
25-10-2019 18.2 (17:10) 8.7 (00:00) 13.5 5.28 (05:10) 3.33 (05:10) 0 0 0 0 0
24-10-2019 12 (17:00) 5.3 (00:00) 8.7 8.89 (15:10) 5.28 (15:10) 3.6 3 0.6 0 0
23-10-2019 10.8 (16:50) 6.3 (00:00) 8.6 9.17 (02:40) 5.28 (07:00) 2.8 0.4 0.8 0 1.6
22-10-2019 8.6 (15:20) 3.5 (00:00) 6.1 15 (14:10) 8.06 (19:50) 0 0 0 0 0
21-10-2019 11.7 (17:30) 4.9 (00:00) 8.3 9.72 (21:30) 6.67 (21:30) 0 0 0 0 0
20-10-2019 11.7 (00:00) 5.6 (00:00) 8.6 10.83 (07:10) 6.39 (07:00) 1.8 0.6 0.4 0.4 0.4
19-10-2019 14.9 (17:50) 9.9 (00:00) 12.4 11.39 (15:40) 7.5 (15:30) 7.4 0 0 0 7.4
18-10-2019 15.1 (14:50) 10.5 (00:00) 12.8 11.94 (17:10) 6.67 (12:50) 1.6 1.6 0 0 0
17-10-2019 17.7 (18:00) 9.4 (00:00) 13.6 9.17 (11:00) 5.83 (10:20) 5 4.2 0.8 0 0
16-10-2019 16.5 (16:00) 7.1 (00:00) 11.8 10.28 (10:10) 6.94 (11:50) 0 0 0 0 0
15-10-2019 13.3 (17:40) 2.9 (00:00) 8.1 9.17 (15:30) 5.83 (13:50) 0 0 0 0 0
14-10-2019 17.9 (09:50) 6.4 (00:00) 12.1 15.83 (11:30) 8.61 (11:40) 1.6 0 0.4 0.8 0.4

Gráficas

Temp. máximas Temp. mínimas Temp. medias Precipitaciones Rachas de viento máximas Velocidades máximas media en intervalos de 10 minutos

Datos horarios

Fecha y hora oficial Temperatura (ºC) Velocidad del viento (km/h) Dirección del viento Racha (km/h) Dirección de racha Precipitación (mm) Presión (hPa) Tendencia (hPa) Humedad (%)
2019-11-12 23:00:00 6.9 13 Sudoeste 22 Sudoeste 0 -- -- 96
2019-11-12 22:00:00 6.4 11 Sudoeste 25 Sur 0 -- -- 96
2019-11-12 21:00:00 6 15 Sur 26 Sur 0 -- -- 95
2019-11-12 20:00:00 5.8 19 Sur 26 Sur 1 -- -- 93
2019-11-12 19:00:00 6 14 Sur 22 Sur 1.4 -- -- 90
2019-11-12 18:00:00 6.6 11 Sudoeste 21 Sudoeste 0.4 -- -- 85
2019-11-12 17:00:00 7.8 7 Oeste 26 Oeste 0 -- -- 77
2019-11-12 16:00:00 8.8 10 Oeste 31 Sudoeste 0 -- -- 68
2019-11-12 15:00:00 9.1 13 Oeste 31 Oeste 0 -- -- 67
2019-11-12 14:00:00 9.2 13 Oeste 28 Oeste 0 -- -- 69
2019-11-12 13:00:00 8.2 9 Oeste 21 Sudoeste 0 -- -- 76
2019-11-12 12:00:00 6.6 7 Oeste 14 Sudoeste 0 -- -- 80
2019-11-12 11:00:00 5 7 Sudoeste 14 Sudoeste 0 -- -- 83
2019-11-12 10:00:00 3.8 6 Sudoeste 13 Sudoeste 0 -- -- 88
2019-11-12 09:00:00 1.8 5 Sur 12 Sur 0 -- -- 97
2019-11-12 08:00:00 1.5 4 Sur 8 Sudoeste 0 -- -- 96
2019-11-12 07:00:00 2.1 5 Sudeste 10 Sur 0 -- -- 96
2019-11-12 06:00:00 2 7 Sur 12 Sur 0 -- -- 96
2019-11-12 05:00:00 1.8 4 Sudeste 5 Sudeste 0 -- -- 95
2019-11-12 04:00:00 1.7 0 Calma 4 Sur 0 -- -- 95
2019-11-12 03:00:00 1.8 0 Calma 5 Oeste 0 -- -- 95
2019-11-12 02:00:00 1.7 3 Oeste 10 Noroeste 0 -- -- 94
2019-11-12 01:00:00 2 5 Noroeste 14 Nordeste 0 -- -- 93
2019-11-12 00:00:00 2.9 10 Nordeste 16 Nordeste 0 -- -- 90
2019-11-11 23:00:00 3.1 12 Nordeste 36 Nordeste 0 -- -- 90
2019-11-11 22:00:00 3.5 17 Nordeste 31 Nordeste 0 -- -- 90
2019-11-11 21:00:00 3.5 12 Norte 27 Norte 0 -- -- 91
2019-11-11 20:00:00 3.8 12 Norte 21 Norte 0 -- -- 89
2019-11-11 19:00:00 4.5 11 Norte 27 Nordeste 0 -- -- 88
2019-11-11 18:00:00 5.4 15 Nordeste 34 Norte 0 -- -- 86
2019-11-11 17:00:00 6.6 22 Norte 34 Norte 0 -- -- 80
2019-11-11 16:00:00 7.6 11 Norte 42 Norte 0 -- -- 80
2019-11-11 15:00:00 7.4 25 Norte 39 Norte 0 -- -- 90
2019-11-11 14:00:00 6 4 Oeste 14 Noroeste 0 -- -- 97
2019-11-11 13:00:00 5.5 5 Noroeste 10 Noroeste 0 -- -- 97
2019-11-11 12:00:00 5.2 8 Sudoeste 13 Sudoeste 0 -- -- 98
2019-11-11 11:00:00 4.4 8 Sur 17 Sudoeste 0 -- -- 98
2019-11-11 10:00:00 3.5 12 Sur 18 Sudoeste 0 -- -- 97
2019-11-11 09:00:00 2.7 12 Sur 20 Sur 0 -- -- 96
2019-11-11 08:00:00 2.2 15 Sur 22 Sur 0 -- -- 96
2019-11-11 07:00:00 1.9 12 Sur 16 Sur 0 -- -- 96
2019-11-11 06:00:00 1.8 8 Sur 14 Sur 0 -- -- 96
2019-11-11 05:00:00 1.6 9 Sur 14 Sur 0 -- -- 96
2019-11-11 04:00:00 1.3 10 Sur 13 Sur 0 -- -- 96
2019-11-11 03:00:00 1.2 9 Sur 13 Sur 0 -- -- 96
2019-11-11 02:00:00 1.2 3 Sur 9 Sur 0 -- -- 95
2019-11-11 01:00:00 1.8 4 Sudeste 6 Sur 0 -- -- 94
2019-11-11 00:00:00 2.4 3 Sudoeste 13 Sur 0 -- -- 94
2019-11-10 23:00:00 2.6 7 Sur 10 Sur 0 -- -- 94
2019-11-10 22:00:00 2.8 2 Sudoeste 5 Este 0 -- -- 92
2019-11-10 21:00:00 3 4 Nordeste 9 Nordeste 0 -- -- 91
2019-11-10 20:00:00 2.8 2 Norte 7 Nordeste 0 -- -- 93
2019-11-10 19:00:00 2.9 5 Nordeste 9 Nordeste 0 -- -- 91
2019-11-10 18:00:00 3 4 Norte 21 Norte 0 -- -- 91
2019-11-10 17:00:00 3.1 15 Norte 33 Norte 0 -- -- 90
2019-11-10 16:00:00 3.9 17 Norte 35 Norte 0 -- -- 89
2019-11-10 15:00:00 3.8 17 Norte 31 Norte 2.2 -- -- 93
2019-11-10 14:00:00 4 17 Norte 32 Norte 1 -- -- 86
2019-11-10 13:00:00 5.2 8 Noroeste 23 Oeste 0 -- -- 82
2019-11-10 12:00:00 4.1 12 Oeste 22 Noroeste 0 -- -- 84
2019-11-10 11:00:00 3.2 8 Oeste 21 Oeste 0 -- -- 86
2019-11-10 10:00:00 2.2 9 Oeste 26 Sudoeste 0 -- -- 89
2019-11-10 09:00:00 0.7 8 Sudoeste 14 Oeste 0 -- -- 93
2019-11-10 08:00:00 0 8 Sudoeste 14 Sudoeste 0 -- -- 93
2019-11-10 07:00:00 0 7 Sudoeste 12 Oeste 0 -- -- 93
2019-11-10 06:00:00 0.4 4 Oeste 11 Oeste 0 -- -- 92
2019-11-10 05:00:00 1.5 4 Oeste 9 Oeste 0 -- -- 92
2019-11-10 04:00:00 2.1 3 Oeste 7 Noroeste 0 -- -- 92
2019-11-10 03:00:00 2.5 5 Norte 12 Norte 0 -- -- 90
2019-11-10 02:00:00 3.3 9 Norte 20 Norte 0 -- -- 88
2019-11-10 01:00:00 3.8 11 Norte 21 Norte 0 -- -- 88
2019-11-10 00:00:00 4.3 14 Norte 30 Norte 0 -- -- 86
2019-11-09 23:00:00 5.7 10 Noroeste 36 Oeste 0 -- -- 86
2019-11-09 22:00:00 6.3 14 Oeste 27 Oeste 0 -- -- 83
2019-11-09 21:00:00 6.5 14 Oeste 32 Oeste 0 -- -- 90
2019-11-09 20:00:00 6.7 17 Sudoeste 35 Sudoeste 0 -- -- 94
2019-11-09 19:00:00 6.9 15 Sudoeste 26 Sudoeste 0 -- -- 93
2019-11-09 18:00:00 7.1 19 Sudoeste 30 Sudoeste 0 -- -- 93
2019-11-09 17:00:00 7.1 17 Sudoeste 25 Sudoeste 0 -- -- 94
2019-11-09 16:00:00 6.3 13 Sudoeste 25 Sudoeste 0 -- -- 95
2019-11-09 15:00:00 5.7 15 Sudoeste 26 Sudoeste 0 -- -- 96
2019-11-09 14:00:00 5.1 14 Sudoeste 28 Sudoeste 0 -- -- 94
2019-11-09 13:00:00 4.8 17 Sudoeste 30 Sudoeste 0 -- -- 93
2019-11-09 12:00:00 4.4 18 Sudoeste 28 Sudoeste 0.4 -- -- 94
2019-11-09 11:00:00 3.8 13 Sudoeste 24 Sudoeste 0.4 -- -- 92
2019-11-09 10:00:00 4.2 6 Oeste 22 Sudoeste 0 -- -- 87
2019-11-09 09:00:00 3.3 10 Sur 18 Sur 0 -- -- 90
2019-11-09 08:00:00 3 9 Sur 15 Sudoeste 0 -- -- 86
2019-11-09 07:00:00 3.5 9 Sudoeste 14 Sudoeste 0 -- -- 82
2019-11-09 06:00:00 3.5 8 Sudoeste 15 Oeste 0 -- -- 81
2019-11-09 05:00:00 3.2 4 Oeste 14 Noroeste 0 -- -- 83
2019-11-09 04:00:00 2.9 4 Oeste 21 Oeste 0 -- -- 83
2019-11-09 03:00:00 2.7 8 Oeste 20 Oeste 0 -- -- 86
2019-11-09 02:00:00 2.6 7 Oeste 19 Oeste 0 -- -- 86
2019-11-09 01:00:00 2.9 12 Oeste 23 Oeste 0 -- -- 85
2019-11-09 00:00:00 2.4 6 Sudoeste 14 Sudoeste 0 -- -- 85
2019-11-08 23:00:00 2.8 7 Oeste 20 Oeste 0 -- -- 81
2019-11-08 22:00:00 3.2 7 Oeste 15 Oeste 0 -- -- 78
2019-11-08 21:00:00 4 5 Oeste 19 Noroeste 0 -- -- 73
2019-11-08 20:00:00 4.9 10 Noroeste 24 Noroeste 0 -- -- 69
2019-11-08 19:00:00 5.5 7 Noroeste 28 Oeste 0 -- -- 67
2019-11-08 18:00:00 6.7 16 Oeste 35 Oeste 0 -- -- 62
2019-11-08 17:00:00 8.3 19 Oeste 40 Noroeste 0 -- -- 54
2019-11-08 16:00:00 8.7 20 Oeste 48 Oeste 0 -- -- 54
2019-11-08 15:00:00 8.2 20 Oeste 44 Oeste 0 -- -- 60
2019-11-08 14:00:00 7.3 17 Oeste 41 Oeste 0 -- -- 66
2019-11-08 13:00:00 6 16 Oeste 37 Oeste 0 -- -- 72
2019-11-08 12:00:00 5.8 16 Oeste 35 Sudoeste 0 -- -- 73
2019-11-08 11:00:00 4 16 Oeste 35 Oeste 0 -- -- 82
2019-11-08 10:00:00 2.4 15 Oeste 36 Oeste 0 -- -- 86
2019-11-08 09:00:00 1.6 10 Oeste 27 Oeste 0 -- -- 89
2019-11-08 08:00:00 1.2 11 Oeste 30 Oeste 0 -- -- 90
2019-11-08 07:00:00 1.3 14 Oeste 34 Oeste 0 -- -- 89
2019-11-08 06:00:00 1.2 12 Oeste 22 Sudoeste 0 -- -- 90
2019-11-08 05:00:00 1.3 13 Oeste 26 Oeste 0 -- -- 87
2019-11-08 04:00:00 1.1 12 Sudoeste 22 Sudoeste 0 -- -- 90
2019-11-08 03:00:00 1 11 Sudoeste 25 Sudoeste 0 -- -- 91
2019-11-08 02:00:00 0.9 15 Sudoeste 30 Oeste 0 -- -- 91
2019-11-08 01:00:00 0.5 17 Sudoeste 23 Sudoeste 0 -- -- 90
2019-11-08 00:00:00 0.7 16 Sudoeste 25 Sudoeste 0 -- -- 88
2019-11-07 23:00:00 1.4 13 Sudoeste 24 Sudoeste 0 -- -- 86
2019-11-07 22:00:00 2.2 9 Oeste 23 Oeste 0 -- -- 84
2019-11-07 21:00:00 3 14 Oeste 27 Oeste 0 -- -- 74
2019-11-07 20:00:00 3.4 10 Oeste 21 Oeste 0 -- -- 75
2019-11-07 19:00:00 4.1 12 Oeste 39 Oeste 0 -- -- 72
2019-11-07 18:00:00 5.4 13 Oeste 34 Oeste 0 -- -- 67
2019-11-07 17:00:00 6.5 15 Sudoeste 33 Sudoeste 0 -- -- 76
2019-11-07 16:00:00 6.5 15 Oeste 35 Oeste 0.4 -- -- 77
2019-11-07 15:00:00 8 15 Oeste 38 Oeste 0 -- -- 60
2019-11-07 14:00:00 8.6 18 Oeste 43 Oeste 0 -- -- 57
2019-11-07 13:00:00 8.1 15 Oeste 38 Oeste 0 -- -- 62
2019-11-07 12:00:00 7.7 17 Oeste 36 Oeste 0 -- -- 71
2019-11-07 11:00:00 6.3 16 Oeste 37 Oeste 0 -- -- 81
2019-11-07 10:00:00 5.3 13 Oeste 26 Noroeste 0 -- -- 87
2019-11-07 09:00:00 5.3 13 Oeste 26 Oeste 0 -- -- 88
2019-11-07 08:00:00 5.7 9 Oeste 25 Oeste 0 -- -- 91
2019-11-07 07:00:00 6.8 13 Oeste 26 Oeste 0 -- -- 89
2019-11-07 06:00:00 7.9 13 Oeste 24 Oeste 0 -- -- 88
2019-11-07 05:00:00 8.7 13 Oeste 30 Oeste 0 -- -- 93
2019-11-07 04:00:00 8.9 13 Oeste 30 Sudoeste 0 -- -- 96
2019-11-07 03:00:00 8.7 14 Sudoeste 29 Sudoeste 0 -- -- 96
2019-11-07 02:00:00 8.7 16 Sudoeste 31 Sudoeste 0 -- -- 95
2019-11-07 01:00:00 8.4 20 Sudoeste 33 Sudoeste 0 -- -- 94
2019-11-07 00:00:00 8 20 Sudoeste 30 Sudoeste 0 -- -- 95
2019-11-06 23:00:00 7.8 17 Sudoeste 34 Sudoeste 0 -- -- 94
2019-11-06 22:00:00 7.9 23 Sudoeste 33 Sudoeste 0.2 -- -- 91
2019-11-06 21:00:00 8.6 15 Sudoeste 33 Sudoeste 0 -- -- 84
2019-11-06 20:00:00 9 17 Sudoeste 29 Sudoeste 0 -- -- 80
2019-11-06 19:00:00 9.1 13 Sudoeste 23 Sudoeste 0 -- -- 78
2019-11-06 18:00:00 9.4 12 Sudoeste 23 Sudoeste 0 -- -- 74
2019-11-06 17:00:00 9.9 11 Sudoeste 32 Oeste 0 -- -- 67
2019-11-06 16:00:00 10.6 14 Oeste 29 Sudoeste 0 -- -- 63
2019-11-06 15:00:00 10.1 12 Sudoeste 25 Oeste 0 -- -- 67
2019-11-06 14:00:00 9.7 12 Oeste 25 Oeste 0 -- -- 72
2019-11-06 13:00:00 9.6 12 Oeste 22 Oeste 0 -- -- 69
2019-11-06 12:00:00 8.4 8 Oeste 20 Sudoeste 0 -- -- 75
2019-11-06 11:00:00 5.9 9 Sudoeste 17 Sur 0 -- -- 87
2019-11-06 10:00:00 4.3 5 Sur 13 Sur 0 -- -- 93
2019-11-06 09:00:00 3.2 2 Oeste 7 Sudeste 0 -- -- 94
2019-11-06 08:00:00 3.1 4 Sur 6 Sur 0 -- -- 93
2019-11-06 07:00:00 2.8 3 Sur 5 Sudeste 0 -- -- 93
2019-11-06 06:00:00 3.1 3 Este 9 Oeste 0 -- -- 92
2019-11-06 05:00:00 3.6 3 Sudoeste 9 Sudoeste 0 -- -- 90
2019-11-06 04:00:00 4.5 6 Sudoeste 12 Oeste 0 -- -- 89
2019-11-06 03:00:00 4.5 6 Oeste 12 Oeste 0 -- -- 89
2019-11-06 02:00:00 5 4 Oeste 19 Oeste 0 -- -- 88
2019-11-06 01:00:00 5.1 8 Oeste 18 Oeste 0 -- -- 89
2019-11-06 00:00:00 4.4 6 Oeste 14 Oeste 0 -- -- 89
2019-11-05 23:00:00 4.6 8 Oeste 14 Noroeste 0 -- -- 87
2019-11-05 22:00:00 4.6 5 Oeste 14 Noroeste 0 -- -- 86
2019-11-05 21:00:00 5.8 8 Noroeste 18 Noroeste 0 -- -- 82
2019-11-05 20:00:00 5.9 7 Noroeste 14 Oeste 0 -- -- 82
2019-11-05 19:00:00 6.4 6 Oeste 15 Oeste 0 -- -- 83
2019-11-05 18:00:00 7.3 7 Noroeste 25 Noroeste 0 -- -- 81
2019-11-05 17:00:00 7.9 10 Noroeste 34 Noroeste 0 -- -- 79
2019-11-05 16:00:00 8.5 12 Noroeste 40 Noroeste 0 -- -- 78
2019-11-05 15:00:00 9.6 13 Noroeste 43 Oeste 0 -- -- 73
2019-11-05 14:00:00 9.9 14 Noroeste 46 Oeste 0.6 -- -- 74
2019-11-05 13:00:00 8.9 17 Oeste 39 Oeste 0 -- -- 77
2019-11-05 12:00:00 8.1 18 Oeste 40 Oeste 0 -- -- 79
2019-11-05 11:00:00 7.1 19 Sudoeste 39 Oeste 0 -- -- 86
2019-11-05 10:00:00 5.7 21 Sudoeste 34 Sudoeste 0 -- -- 90
2019-11-05 09:00:00 4.5 17 Sudoeste 26 Sudoeste 0 -- -- 93
2019-11-05 08:00:00 3.5 14 Sudoeste 25 Sudoeste 0 -- -- 93
2019-11-05 07:00:00 3.8 12 Sudoeste 24 Oeste 0 -- -- 91
2019-11-05 06:00:00 4.3 14 Sudoeste 29 Sudoeste 0 -- -- 89
2019-11-05 05:00:00 5.2 14 Oeste 39 Oeste 0 -- -- 87
2019-11-05 04:00:00 5.5 18 Sudoeste 45 Sudoeste 0 -- -- 87
2019-11-05 03:00:00 5.2 15 Sudoeste 30 Sudoeste 0 -- -- 90
2019-11-05 02:00:00 4.8 13 Sudoeste 32 Sudoeste 0 -- -- 90
2019-11-05 01:00:00 5.5 16 Sudoeste 31 Sudoeste 0 -- -- 87
2019-11-05 00:00:00 6.2 12 Oeste 27 Oeste 0 -- -- 86
2019-11-04 23:00:00 6 14 Sudoeste 32 Sudoeste 0 -- -- 85
2019-11-04 22:00:00 6.8 15 Sudoeste 28 Oeste 0 -- -- 82
2019-11-04 21:00:00 7.4 13 Oeste 38 Oeste 0 -- -- 83
2019-11-04 20:00:00 8.6 16 Sudoeste 40 Sudoeste 0 -- -- 84
2019-11-04 19:00:00 9.6 24 Oeste 44 Sudoeste 0 -- -- 79
2019-11-04 18:00:00 10.7 21 Sudoeste 36 Sudoeste 0 -- -- 85
2019-11-04 17:00:00 11 19 Oeste 39 Oeste 0 -- -- 84
2019-11-04 16:00:00 11.3 18 Sudoeste 36 Sudoeste 0.6 -- -- 89
2019-11-04 15:00:00 10.7 23 Sudoeste 49 Sudoeste 1 -- -- 91
2019-11-04 14:00:00 11.5 30 Sudoeste 63 Sudoeste 0 -- -- 92
2019-11-04 13:00:00 11.4 36 Sudoeste 56 Sudoeste 0 -- -- 90
2019-11-04 12:00:00 10.8 34 Sudoeste 61 Sudoeste 0 -- -- 92
2019-11-04 11:00:00 11.1 33 Sudoeste 51 Sudoeste 0 -- -- 87
2019-11-04 10:00:00 10.7 33 Sudoeste 53 Sudoeste 0 -- -- 87
2019-11-04 09:00:00 10.4 31 Sudoeste 49 Sudoeste 0 -- -- 88
2019-11-04 08:00:00 10.6 25 Sudoeste 50 Sudoeste 0 -- -- 87
2019-11-04 07:00:00 10.2 25 Sudoeste 46 Sudoeste 0 -- -- 92
2019-11-04 06:00:00 10.8 28 Sudoeste 47 Sudoeste 0 -- -- 85
2019-11-04 05:00:00 10.7 27 Sudoeste 44 Sudoeste 0 -- -- 85
2019-11-04 04:00:00 10.9 27 Sudoeste 52 Sudoeste 0 -- -- 85
2019-11-04 03:00:00 11.4 26 Sudoeste 53 Sudoeste 0 -- -- 88
2019-11-04 02:00:00 11.2 26 Sudoeste 54 Sur 0 -- -- 91
2019-11-04 01:00:00 11.1 28 Sudoeste 47 Sudoeste 0 -- -- 92
2019-11-04 00:00:00 10.7 28 Sudoeste 46 Sudoeste 0.4 -- -- 94
2019-11-03 23:00:00 10.1 22 Sudoeste 39 Sudoeste 0 -- -- 95
2019-11-03 22:00:00 9.9 22 Sudoeste 36 Sudoeste 0 -- -- 93
2019-11-03 21:00:00 9.9 24 Sudoeste 35 Sudoeste 0 -- -- 87
2019-11-03 20:00:00 9.8 18 Sudoeste 32 Sudoeste 0 -- -- 84
2019-11-03 19:00:00 10 17 Sudoeste 37 Sudoeste 0.6 -- -- 80
2019-11-03 18:00:00 11.3 19 Sudoeste 35 Sudoeste 0 -- -- 67
2019-11-03 17:00:00 12.3 18 Oeste 48 Oeste 0 -- -- 57
2019-11-03 16:00:00 12.8 23 Oeste 50 Oeste 0 -- -- 52
2019-11-03 15:00:00 12.6 23 Oeste 46 Oeste 0 -- -- 54
2019-11-03 14:00:00 11.9 25 Oeste 51 Oeste 0 -- -- 55
2019-11-03 13:00:00 11.5 20 Oeste 44 Oeste 0 -- -- 59
2019-11-03 12:00:00 10.7 22 Oeste 42 Oeste 0 -- -- 56
2019-11-03 11:00:00 9.5 21 Oeste 41 Oeste 0 -- -- 64
2019-11-03 10:00:00 8.6 14 Oeste 35 Oeste 0 -- -- 77
2019-11-03 09:00:00 7.6 19 Oeste 35 Oeste 0 -- -- 80
2019-11-03 08:00:00 7.5 22 Oeste 42 Oeste 0 -- -- 78
2019-11-03 07:00:00 8.2 24 Oeste 57 Noroeste 0 -- -- 74
2019-11-03 06:00:00 9.6 29 Oeste 57 Oeste 1 -- -- 75
2019-11-03 05:00:00 10.4 31 Sudoeste 56 Sudoeste 0.2 -- -- 91
2019-11-03 04:00:00 10 33 Sudoeste 60 Sudoeste 0 -- -- 90
2019-11-03 03:00:00 9.4 37 Sudoeste 64 Sudoeste 0 -- -- 92
2019-11-03 02:00:00 10.1 40 Sudoeste 61 Sudoeste 0 -- -- 84
2019-11-03 01:00:00 10.7 32 Sudoeste 60 Sudoeste 0 -- -- 80
2019-11-03 00:00:00 10.8 27 Sudoeste 51 Sudoeste 0 -- -- 79
2019-11-02 23:00:00 11.1 23 Sudoeste 51 Sudoeste 0 -- -- 80
2019-11-02 22:00:00 11.4 27 Sudoeste 47 Sudoeste 0 -- -- 78
2019-11-02 21:00:00 11.2 20 Sudoeste 35 Sudoeste 0 -- -- 80
2019-11-02 20:00:00 11.5 19 Sudoeste 34 Sudoeste 0 -- -- 77
2019-11-02 19:00:00 12.1 18 Sudoeste 39 Sudoeste 0 -- -- 77
2019-11-02 18:00:00 12.5 18 Sudoeste 36 Oeste 0 -- -- 76
2019-11-02 17:00:00 13.2 17 Oeste 43 Oeste 0 -- -- 74
2019-11-02 16:00:00 14 21 Oeste 44 Sudoeste 0 -- -- 73
2019-11-02 15:00:00 14.5 19 Oeste 44 Sudoeste 0 -- -- 72
2019-11-02 14:00:00 14.7 18 Sudoeste 39 Oeste 0 -- -- 75
2019-11-02 13:00:00 15 20 Sudoeste 41 Sudoeste 0 -- -- 75
2019-11-02 12:00:00 14.1 19 Sudoeste 42 Sudoeste 0 -- -- 84
2019-11-02 11:00:00 13.4 18 Sudoeste 35 Sudoeste 0 -- -- 90
2019-11-02 10:00:00 13.1 19 Sudoeste 39 Oeste 0 -- -- 90
2019-11-02 09:00:00 12.9 18 Sudoeste 36 Sudoeste 0 -- -- 90
2019-11-02 08:00:00 12.8 20 Sudoeste 33 Sudoeste 0 -- -- 90
2019-11-02 07:00:00 12.7 20 Sudoeste 37 Sudoeste 0 -- -- 89
2019-11-02 06:00:00 12.8 22 Sudoeste 36 Sudoeste 0 -- -- 89
2019-11-02 05:00:00 13 22 Sudoeste 38 Sudoeste 0 -- -- 89
2019-11-02 04:00:00 13 19 Sudoeste 33 Sudoeste 0 -- -- 89
2019-11-02 03:00:00 12.8 14 Sudoeste 28 Oeste 0 -- -- 91
2019-11-02 02:00:00 12.9 18 Sudoeste 32 Sudoeste 0 -- -- 90
2019-11-02 01:00:00 12.9 17 Sudoeste 25 Sudoeste 0 -- -- 92
2019-11-02 00:00:00 13 14 Sudoeste 30 Sudoeste 0 -- -- 91
2019-11-01 23:00:00 13.2 14 Sudoeste 35 Sudoeste 0 -- -- 92
2019-11-01 22:00:00 13.5 17 Sudoeste 31 Sudoeste 0 -- -- 90
2019-11-01 21:00:00 13.9 18 Sudoeste 33 Sudoeste 0 -- -- 89
2019-11-01 20:00:00 14.5 17 Sudoeste 34 Sudoeste 0 -- -- 87
2019-11-01 19:00:00 15 19 Sudoeste 41 Sudoeste 0 -- -- 87
2019-11-01 18:00:00 15.5 19 Sudoeste 40 Sudoeste 0 -- -- 88
2019-11-01 17:00:00 15.5 17 Oeste 49 Sudoeste 0.2 -- -- 91
2019-11-01 16:00:00 17.5 21 Sudoeste 45 Oeste 0 -- -- 80
2019-11-01 15:00:00 16.1 16 Sudoeste 41 Sudoeste 0.8 -- -- 92
2019-11-01 14:00:00 16.5 19 Sudoeste 37 Sudoeste 0 -- -- 87
2019-11-01 13:00:00 16.3 17 Sudoeste 37 Sudoeste 0 -- -- 89
2019-11-01 12:00:00 16 17 Sudoeste 30 Sudoeste 0 -- -- 89
2019-11-01 11:00:00 15.6 12 Oeste 26 Oeste 0 -- -- 90
2019-11-01 10:00:00 15.4 17 Sudoeste 31 Sudoeste 0 -- -- 89
2019-11-01 09:00:00 14.8 13 Sudoeste 23 Sudoeste 0 -- -- 90
2019-11-01 08:00:00 14.5 11 Sudoeste 23 Sudoeste 0 -- -- 92
2019-11-01 07:00:00 14.4 11 Sudoeste 22 Sudoeste 0 -- -- 92
2019-11-01 06:00:00 14.6 10 Oeste 25 Oeste 0 -- -- 91
2019-11-01 05:00:00 14.6 10 Oeste 26 Sudoeste 0 -- -- 91
2019-11-01 04:00:00 14.6 10 Oeste 26 Sudoeste 0 -- -- 93
2019-11-01 03:00:00 14.4 9 Sudoeste 21 Oeste 0 -- -- 94
2019-11-01 02:00:00 14.4 10 Sudoeste 22 Sudoeste 0 -- -- 92
2019-11-01 01:00:00 14.5 8 Sudoeste 20 Sudoeste 0 -- -- 93
2019-11-01 00:00:00 14.2 9 Sur 15 Sur 0 -- -- 93
2019-10-31 23:00:00 14.3 11 Sudoeste 19 Sudoeste 0 -- -- 89
2019-10-31 22:00:00 14.4 8 Sudoeste 12 Sudoeste 0 -- -- 85
2019-10-31 21:00:00 14.6 6 Sur 14 Sudoeste 0 -- -- 83
2019-10-31 20:00:00 15.2 7 Sudoeste 16 Sudoeste 0 -- -- 81
2019-10-31 19:00:00 15.5 5 Sudoeste 8 Sudoeste 0 -- -- 77
2019-10-31 18:00:00 16.5 3 Oeste 20 Oeste 0 -- -- 71
2019-10-31 17:00:00 17.3 8 Oeste 21 Oeste 0 -- -- 68
2019-10-31 16:00:00 17.4 9 Oeste 19 Oeste 0 -- -- 67
2019-10-31 15:00:00 17.9 6 Oeste 20 Oeste 0 -- -- 66
2019-10-31 14:00:00 16.7 7 Sudoeste 21 Oeste 0 -- -- 71
2019-10-31 13:00:00 16.1 9 Sudoeste 19 Sudoeste 0 -- -- 75
2019-10-31 12:00:00 14.8 5 Oeste 14 Oeste 0 -- -- 82
2019-10-31 11:00:00 13.1 4 Oeste 10 Noroeste 0 -- -- 91
2019-10-31 10:00:00 12.3 4 Noroeste 13 Oeste 0 -- -- 94
2019-10-31 09:00:00 11.9 5 Oeste 14 Oeste 0 -- -- 95
2019-10-31 08:00:00 12 6 Oeste 13 Oeste 0 -- -- 95
2019-10-31 07:00:00 12.1 5 Oeste 10 Oeste 0 -- -- 96
2019-10-31 06:00:00 12.2 3 Oeste 12 Oeste 0 -- -- 96
2019-10-31 05:00:00 12.4 7 Sudoeste 14 Oeste 0 -- -- 96
2019-10-31 04:00:00 12.7 5 Sudoeste 14 Sudoeste 0 -- -- 96
2019-10-31 03:00:00 13 8 Sudoeste 15 Sudoeste 0 -- -- 96
2019-10-31 02:00:00 13.1 7 Sudoeste 23 Sudoeste 0 -- -- 96
2019-10-31 01:00:00 13.2 12 Sudoeste 18 Sudoeste 0 -- -- 97
2019-10-31 00:00:00 13 11 Sudoeste 17 Sudoeste 0 -- -- 96
2019-10-30 23:00:00 12.9 12 Sur 17 Sudoeste 0 -- -- 96
2019-10-30 22:00:00 12.6 11 Sur 23 Sur 0 -- -- 96
2019-10-30 21:00:00 12.4 14 Sur 19 Sudoeste 0 -- -- 95
2019-10-30 20:00:00 13.1 13 Sudoeste 22 Sudoeste 0 -- -- 92
2019-10-30 19:00:00 13.4 8 Sudoeste 16 Sudoeste 0 -- -- 93
2019-10-30 18:00:00 13.7 10 Sudoeste 18 Sudoeste 0 -- -- 92
2019-10-30 17:00:00 14 12 Sudoeste 26 Sudoeste 0.4 -- -- 91
2019-10-30 16:00:00 14.9 10 Sudoeste 28 Sudoeste 0 -- -- 85
2019-10-30 15:00:00 15.2 14 Sudoeste 22 Sudoeste 0 -- -- 81
2019-10-30 14:00:00 14.9 15 Sudoeste 22 Sudoeste 0 -- -- 82
2019-10-30 13:00:00 14.3 12 Sudoeste 23 Sudoeste 0 -- -- 85
2019-10-30 12:00:00 14.4 12 Sudoeste 19 Sur 0 -- -- 85
2019-10-30 11:00:00 13.9 12 Sur 16 Sudoeste 0 -- -- 86
2019-10-30 10:00:00 13.1 12 Sur 17 Sur 0 -- -- 87
2019-10-30 09:00:00 12.3 9 Sur 14 Sur 0 -- -- 89
2019-10-30 08:00:00 11.8 11 Sur 15 Sur 0 -- -- 89
2019-10-30 07:00:00 11.5 11 Sur 15 Sur 0 -- -- 89
2019-10-30 06:00:00 11.6 5 Sur 14 Sur 0 -- -- 87
2019-10-30 05:00:00 11.5 10 Sur 14 Sur 0 -- -- 87
2019-10-30 04:00:00 11.2 8 Sur 13 Sur 0 -- -- 86
2019-10-30 03:00:00 10.6 9 Sur 12 Sudeste 0 -- -- 88
2019-10-30 02:00:00 8.9 0 Calma 9 Sur 0 -- -- 87
2019-10-30 01:00:00 9.2 0 Calma 10 Sur 0 -- -- 86
2019-10-30 00:00:00 9.9 4 Sur 7 Sur 0 -- -- 85
2019-10-29 23:00:00 9.5 0 Calma 7 Sur 0 -- -- 85
2019-10-29 22:00:00 10.2 3 Sur 10 Sudeste 0 -- -- 85
2019-10-29 21:00:00 11.4 3 Sudeste 6 Sudeste 0 -- -- 77
2019-10-29 20:00:00 12.1 4 Sudoeste 10 Sur 0 -- -- 75
2019-10-29 19:00:00 13.2 7 Sur 12 Sudoeste 0 -- -- 76
2019-10-29 18:00:00 14.9 9 Sudoeste 22 Sudoeste 0 -- -- 70
2019-10-29 17:00:00 16.9 13 Sudoeste 23 Sudoeste 0 -- -- 62
2019-10-29 16:00:00 16.9 10 Sudoeste 19 Sudoeste 0 -- -- 69
2019-10-29 15:00:00 15 6 Sudoeste 13 Sur 0 -- -- 82
2019-10-29 14:00:00 14.7 4 Sur 12 Sudoeste 0 -- -- 82
2019-10-29 13:00:00 14 6 Sudoeste 12 Sudoeste 0 -- -- 84
2019-10-29 12:00:00 13.5 7 Sudoeste 14 Sudoeste 0 -- -- 87
2019-10-29 11:00:00 12.9 7 Sudoeste 15 Sudoeste 0 -- -- 92
2019-10-29 10:00:00 12.1 9 Sudoeste 15 Sur 0 -- -- 95
2019-10-29 09:00:00 11.5 8 Sur 15 Sur 0 -- -- 93
2019-10-29 08:00:00 11.7 10 Sur 14 Sur 0 -- -- 91
2019-10-29 07:00:00 11.5 10 Sur 16 Sur 0 -- -- 90
2019-10-29 06:00:00 11.4 9 Sur 13 Sur 0 -- -- 89
2019-10-29 05:00:00 11.3 3 Sudeste 12 Sur 0 -- -- 87
2019-10-29 04:00:00 9.8 5 Sur 11 Sur 0 -- -- 93
2019-10-29 03:00:00 10 2 Sur 12 Sudeste 0 -- -- 89
2019-10-29 02:00:00 10.4 4 Sudeste 14 Sur 0 -- -- 86
2019-10-29 01:00:00 10.8 5 Sudeste 9 Sur 0 -- -- 85
2019-10-29 00:00:00 10.5 3 Sur 10 Sudeste 0 -- -- 84
2019-10-28 23:00:00 11.3 3 Sur 6 Sudeste 0 -- -- 82
2019-10-28 22:00:00 11.9 0 Calma 5 Sudoeste 0 -- -- 76
2019-10-28 21:00:00 13 3 Sudoeste 5 Sur 0 -- -- 72
2019-10-28 20:00:00 14 0 Calma 3 Sur 0 -- -- 72
2019-10-28 19:00:00 16 0 Calma 7 Oeste 0 -- -- 65
2019-10-28 18:00:00 18.2 4 Oeste 10 Oeste 0 -- -- 57
2019-10-28 17:00:00 20 4 Oeste 13 Oeste 0 -- -- 49
2019-10-28 16:00:00 20.8 4 Oeste 15 Oeste 0 -- -- 45
2019-10-28 15:00:00 20.5 6 Oeste 15 Oeste 0 -- -- 46
2019-10-28 14:00:00 20.6 5 Noroeste 13 Sudoeste 0 -- -- 47
2019-10-28 13:00:00 19.6 7 Oeste 17 Oeste 0 -- -- 48
2019-10-28 12:00:00 18.9 4 Oeste 11 Sudoeste 0 -- -- 52
2019-10-28 11:00:00 17.1 5 Sur 15 Sur 0 -- -- 59
2019-10-28 10:00:00 14.3 10 Sur 14 Sur 0 -- -- 72
2019-10-28 09:00:00 10.7 2 Este 8 Noroeste 0 -- -- 87
2019-10-28 08:00:00 10.6 2 Noroeste 6 Sudeste 0 -- -- 88
2019-10-28 07:00:00 10.7 2 Sur 5 Sudeste 0 -- -- 88
2019-10-28 06:00:00 11.2 4 Noroeste 6 Oeste 0 -- -- 85
2019-10-28 05:00:00 12.1 2 Este 6 Este 0 -- -- 78
2019-10-28 04:00:00 11.9 2 Sur 11 Sudeste 0 -- -- 78
2019-10-28 03:00:00 11.4 0 Calma 10 Sur -- -- -- 80
2019-10-28 02:00:00 11.4 3 Este 5 Sudeste 0 -- -- 82
2019-10-28 01:00:00 11 2 Este 6 Sudeste 0 -- -- 85
2019-10-28 00:00:00 11 2 Este 10 Sudeste 0 -- -- 86
2019-10-27 23:00:00 11.2 2 Este 6 Sudeste 0 -- -- 85
2019-10-27 22:00:00 11.7 2 Nordeste 5 Este 0 -- -- 84
2019-10-27 21:00:00 13.3 4 Este 9 Este 0 -- -- 78
2019-10-27 20:00:00 14 0 Calma 3 Este 0 -- -- 76
2019-10-27 19:00:00 15 2 Norte 3 Norte 0 -- -- 73
2019-10-27 18:00:00 16.1 2 Norte 7 Noroeste 0 -- -- 69
2019-10-27 17:00:00 17.6 4 Norte 10 Sur 0 -- -- 64
2019-10-27 16:00:00 18.7 6 Sudoeste 12 Sudoeste 0 -- -- 53
2019-10-27 15:00:00 19.6 6 Sudoeste 14 Sudoeste 0 -- -- 50
2019-10-27 14:00:00 17.4 5 Sudoeste 12 Sur 0 -- -- 62
2019-10-27 13:00:00 16.8 4 Sudoeste 9 Sudoeste 0 -- -- 60
2019-10-27 12:00:00 16.3 4 Sudoeste 9 Sudoeste 0 -- -- 64
2019-10-27 11:00:00 13.9 0 Calma 8 Sudeste 0 -- -- 74
2019-10-27 10:00:00 11.7 3 Sudeste 6 Sudeste 0 -- -- 78
2019-10-27 09:00:00 9.4 0 Calma 7 Este 0 -- -- 87
2019-10-27 08:00:00 7.9 0 Calma 9 Este 0 -- -- 83
2019-10-27 07:00:00 7.7 5 Este 7 Este 0 -- -- 84
2019-10-27 06:00:00 7.6 2 Este 7 Sudeste 0 -- -- 84
2019-10-27 05:00:00 7.5 3 Sur 6 Sudeste 0 -- -- 85
2019-10-27 04:00:00 7.3 0 Calma 3 Nordeste 0 -- -- 87
2019-10-27 03:00:00 7.5 0 Calma 5 Este 0 -- -- 84
2019-10-27 02:00:00 8.3 3 Este 5 Nordeste 0 -- -- 84
2019-10-27 01:00:00 8.5 3 Este 6 Sudeste 0 -- -- 83
2019-10-27 00:00:00 8.7 2 Nordeste 7 Nordeste 0 -- -- 84
2019-10-26 23:00:00 9.6 0 Calma 5 Este 0 -- -- 80
2019-10-26 22:00:00 10.9 0 Calma 4 Este 0 -- -- 78
2019-10-26 21:00:00 13 0 Calma 5 Norte 0 -- -- 71
2019-10-26 20:00:00 15.5 0 Calma 6 Oeste 0 -- -- 61
2019-10-26 19:00:00 18.9 5 Sur 13 Sudoeste 0 -- -- 48
2019-10-26 18:00:00 21 9 Sudoeste 19 Sudoeste 0 -- -- 39
2019-10-26 17:00:00 21.1 9 Sudoeste 21 Sudoeste 0 -- -- 39
2019-10-26 16:00:00 21 8 Sudoeste 19 Sur 0 -- -- 42
2019-10-26 15:00:00 20.4 10 Sudoeste 22 Sudoeste 0 -- -- 43
2019-10-26 14:00:00 20 9 Sur 18 Sudoeste 0 -- -- 44
2019-10-26 13:00:00 18.3 10 Sur 18 Sur 0 -- -- 55
2019-10-26 12:00:00 16.5 13 Sur 19 Sur 0 -- -- 62
2019-10-26 11:00:00 14.1 6 Sudeste 13 Sudeste 0 -- -- 73
2019-10-26 10:00:00 9.1 3 Este 9 Sudeste 0 -- -- 89
2019-10-26 09:00:00 7.6 7 Sudeste 10 Sudeste 0 -- -- 90
2019-10-26 08:00:00 6.6 0 Calma 4 Nordeste 0 -- -- 90
2019-10-26 07:00:00 8 0 Calma 15 Sudeste 0 -- -- 83
2019-10-26 06:00:00 8.3 6 Sudeste 14 Sudeste 0 -- -- 90
2019-10-26 05:00:00 6.8 0 Calma 5 Norte 0 -- -- 92
2019-10-26 04:00:00 6.9 0 Calma 9 Sur 0 -- -- 91
2019-10-26 03:00:00 7.4 0 Calma 5 Sur 0 -- -- 90
2019-10-26 02:00:00 8.5 3 Este 9 Sudeste 0 -- -- 92
2019-10-26 01:00:00 8.3 4 Este 6 Este 0 -- -- 93
2019-10-26 00:00:00 8.7 0 Calma 4 Este 0 -- -- 90
2019-10-25 23:00:00 10.1 0 Calma 5 Este 0 -- -- 88
2019-10-25 22:00:00 10.6 0 Calma 8 Este 0 -- -- 86
2019-10-25 21:00:00 12.9 4 Este 8 Este 0 -- -- 79
2019-10-25 20:00:00 14.1 3 Nordeste 6 Norte 0 -- -- 76
2019-10-25 19:00:00 16.4 4 Noroeste 9 Noroeste 0 -- -- 69
2019-10-25 18:00:00 18 4 Noroeste 13 Noroeste 0 -- -- 68
2019-10-25 17:00:00 18.1 4 Oeste 10 Oeste 0 -- -- 65
2019-10-25 16:00:00 16.9 4 Oeste 13 Noroeste 0 -- -- 69
2019-10-25 15:00:00 16 6 Noroeste 13 Noroeste 0 -- -- 73
2019-10-25 14:00:00 15.3 3 Oeste 10 Noroeste 0 -- -- 72
2019-10-25 13:00:00 13.7 0 Calma 9 Oeste 0 -- -- 78
2019-10-25 12:00:00 12.4 3 Sur 9 Este 0 -- -- 81
2019-10-25 11:00:00 10.9 5 Sur 12 Sur 0 -- -- 86
2019-10-25 10:00:00 10.2 8 Sur 11 Sur 0 -- -- 89
2019-10-25 09:00:00 9.9 8 Sur 13 Sur 0 -- -- 91
2019-10-25 08:00:00 9.9 8 Sur 13 Sudeste 0 -- -- 91
2019-10-25 07:00:00 10 6 Sudeste 15 Sudeste 0 -- -- 91
2019-10-25 06:00:00 9.9 9 Sudeste 19 Sur 0 -- -- 91
2019-10-25 05:00:00 10.1 12 Sur 18 Sur 0 -- -- 91
2019-10-25 04:00:00 10.2 10 Sur 19 Sudoeste 0 -- -- 90
2019-10-25 03:00:00 10.3 11 Sudoeste 16 Sudoeste 0 -- -- 90
2019-10-25 02:00:00 10.3 7 Sur 19 Sur 0 -- -- 91
2019-10-25 01:00:00 10.2 8 Sur 13 Sur 0 -- -- 92
2019-10-25 00:00:00 10.5 9 Sur 15 Sudoeste 0 -- -- 90
2019-10-24 23:00:00 10.6 9 Sur 15 Sur 0 -- -- 90
2019-10-24 22:00:00 11 9 Sur 15 Sur 0 -- -- 89
2019-10-24 21:00:00 11.3 8 Sur 14 Sur 0 -- -- 88
2019-10-24 20:00:00 11.3 8 Sudoeste 15 Sudoeste 0 -- -- 87
2019-10-24 19:00:00 11.5 10 Sudoeste 20 Oeste 0 -- -- 84
2019-10-24 18:00:00 11.7 10 Sudoeste 22 Sudoeste 0 -- -- 80
2019-10-24 17:00:00 12 12 Sudoeste 25 Sudoeste 0 -- -- 76
2019-10-24 16:00:00 11 12 Sudoeste 32 Sudoeste 0 -- -- 80
2019-10-24 15:00:00 10 17 Sudoeste 29 Sudoeste 0 -- -- 83
2019-10-24 14:00:00 10.2 18 Sudoeste 29 Sur 0 -- -- 80
2019-10-24 13:00:00 8.7 15 Sudoeste 31 Sudoeste 0 -- -- 87
2019-10-24 12:00:00 7.6 15 Sudoeste 23 Sudoeste 0 -- -- 91
2019-10-24 11:00:00 6.6 13 Sudoeste 18 Sudoeste 0 -- -- 94
2019-10-24 10:00:00 5.9 10 Sur 17 Sur 0 -- -- 95
2019-10-24 09:00:00 5.5 10 Sur 19 Sudoeste 0 -- -- 95
2019-10-24 08:00:00 5.4 9 Sudoeste 13 Sudoeste 0 -- -- 94
2019-10-24 07:00:00 5.5 4 Oeste 17 Oeste 0.6 -- -- 95
2019-10-24 06:00:00 5.6 7 Oeste 18 Oeste 0.2 -- -- 95
2019-10-24 05:00:00 5.6 8 Noroeste 19 Oeste 0.4 -- -- 95
2019-10-24 04:00:00 5.7 9 Oeste 24 Oeste 0.6 -- -- 95
2019-10-24 03:00:00 6.1 10 Oeste 22 Oeste 0.6 -- -- 95
2019-10-24 02:00:00 7.2 6 Oeste 14 Oeste 0.8 -- -- 94
2019-10-24 01:00:00 7.6 9 Noroeste 17 Noroeste 0.4 -- -- 94
2019-10-24 00:00:00 8.1 10 Norte 18 Norte 0.4 -- -- 93
2019-10-23 23:00:00 8.6 4 Norte 8 Sudoeste 1.2 -- -- 93
2019-10-23 22:00:00 9 4 Sudoeste 9 Sudoeste 0 -- -- 93
2019-10-23 21:00:00 9.1 4 Oeste 9 Oeste 0 -- -- 92
2019-10-23 20:00:00 9.3 4 Oeste 13 Oeste 0 -- -- 90
2019-10-23 19:00:00 9.8 7 Sudoeste 17 Sudoeste 0 -- -- 83
2019-10-23 18:00:00 10.2 11 Sudoeste 19 Sudoeste 0 -- -- 81
2019-10-23 17:00:00 10.7 13 Sudoeste 20 Sudoeste 0 -- -- 79
2019-10-23 16:00:00 10.7 12 Sur 20 Sudoeste 0 -- -- 83
2019-10-23 15:00:00 9.6 10 Sudoeste 19 Sudoeste 0 -- -- 86
2019-10-23 14:00:00 9.3 11 Sur 19 Sudoeste 0 -- -- 91
2019-10-23 13:00:00 9.3 12 Sudoeste 26 Sur 0 -- -- 93
2019-10-23 12:00:00 8.4 4 Oeste 21 Sudeste 0.8 -- -- 95
2019-10-23 11:00:00 8.8 10 Sudeste 21 Sudeste 0 -- -- 93
2019-10-23 10:00:00 9.1 8 Nordeste 12 Nordeste 0 -- -- 93
2019-10-23 09:00:00 8.9 7 Nordeste 20 Nordeste 0 -- -- 93
2019-10-23 08:00:00 8.8 11 Este 31 Norte 0 -- -- 96
2019-10-23 07:00:00 8.5 19 Norte 28 Norte 0 -- -- 97
2019-10-23 06:00:00 8 19 Norte 29 Norte 0 -- -- 97
2019-10-23 05:00:00 7.7 14 Norte 23 Norte 0.4 -- -- 97
2019-10-23 04:00:00 7.2 14 Norte 31 Norte 0 -- -- 97
2019-10-23 03:00:00 6.8 17 Norte 33 Norte 0 -- -- 97
2019-10-23 02:00:00 6.4 15 Norte 26 Norte 0 -- -- 96
2019-10-23 01:00:00 6.4 17 Norte 29 Norte 0 -- -- 95
2019-10-23 00:00:00 6.3 15 Norte 26 Norte 0 -- -- 95
2019-10-22 23:00:00 6.3 11 Norte 35 Norte 0 -- -- 93
2019-10-22 22:00:00 6.2 24 Norte 45 Norte 0 -- -- 91
2019-10-22 21:00:00 6.6 20 Norte 44 Norte 0 -- -- 88
2019-10-22 20:00:00 7.2 29 Norte 46 Nordeste 0 -- -- 84
2019-10-22 19:00:00 7.5 20 Nordeste 35 Nordeste 0 -- -- 87
2019-10-22 18:00:00 7.9 23 Nordeste 48 Norte 0 -- -- 80
2019-10-22 17:00:00 8.2 26 Norte 50 Nordeste 0 -- -- 82
2019-10-22 16:00:00 8.6 24 Nordeste 44 Nordeste 0 -- -- 80
2019-10-22 15:00:00 8.4 24 Nordeste 54 Nordeste 0 -- -- 82
2019-10-22 14:00:00 8 23 Nordeste 45 Este 0 -- -- 83
2019-10-22 13:00:00 7.8 20 Nordeste 43 Nordeste 0 -- -- 84
2019-10-22 12:00:00 7 22 Nordeste 37 Nordeste 0 -- -- 87
2019-10-22 11:00:00 6.3 17 Nordeste 26 Norte 0 -- -- 90
2019-10-22 10:00:00 5 6 Este 11 Este 0 -- -- 93
2019-10-22 09:00:00 4.2 5 Nordeste 17 Nordeste 0 -- -- 91
2019-10-22 08:00:00 4.4 9 Nordeste 16 Nordeste 0 -- -- 90
2019-10-22 07:00:00 4 9 Nordeste 19 Nordeste 0 -- -- 90
2019-10-22 06:00:00 4 11 Nordeste 17 Nordeste 0 -- -- 90
2019-10-22 05:00:00 3.6 4 Norte 12 Nordeste 0 -- -- 88
2019-10-22 04:00:00 5 8 Nordeste 16 Este 0 -- -- 85
2019-10-22 03:00:00 5 9 Nordeste 16 Nordeste 0 -- -- 89
2019-10-22 02:00:00 5.5 8 Nordeste 18 Nordeste 0 -- -- 89
2019-10-22 01:00:00 6.1 4 Nordeste 14 Nordeste 0 -- -- 88
2019-10-22 00:00:00 6.7 6 Nordeste 14 Este 0 -- -- 86
2019-10-21 23:00:00 6.7 8 Sur 23 Sur 0 -- -- 85
2019-10-21 22:00:00 7.1 18 Sur 35 Sur 0 -- -- 80
2019-10-21 21:00:00 8 9 Este 19 Este 0 -- -- 77
2019-10-21 20:00:00 8.6 7 Nordeste 21 Nordeste 0 -- -- 79
2019-10-21 19:00:00 10.2 10 Nordeste 17 Norte 0 -- -- 70
2019-10-21 18:00:00 11.1 9 Norte 14 Nordeste 0 -- -- 67
2019-10-21 17:00:00 10.9 7 Norte 16 Noroeste 0 -- -- 64
2019-10-21 16:00:00 11.4 4 Oeste 17 Oeste 0 -- -- 64
2019-10-21 15:00:00 10.3 5 Oeste 10 Oeste 0 -- -- 70
2019-10-21 14:00:00 10.3 3 Noroeste 9 Sudoeste 0 -- -- 74
2019-10-21 13:00:00 9.1 3 Sudoeste 8 Sudoeste 0 -- -- 78
2019-10-21 12:00:00 8.1 2 Sudeste 12 Este 0 -- -- 80
2019-10-21 11:00:00 7.2 5 Este 14 Sudeste 0 -- -- 88
2019-10-21 10:00:00 6 8 Este 14 Este 0 -- -- 92
2019-10-21 09:00:00 5.1 5 Sudeste 10 Este 0 -- -- 92
2019-10-21 08:00:00 6 5 Sudeste 9 Sudeste 0 -- -- 93
2019-10-21 07:00:00 6.2 5 Sudeste 9 Sudeste 0 -- -- 93
2019-10-21 06:00:00 6.2 4 Sur 8 Sur 0 -- -- 92
2019-10-21 05:00:00 6.1 3 Sudoeste 5 Oeste 0 -- -- 93
2019-10-21 04:00:00 5.8 3 Sur 9 Sur 0 -- -- 94
2019-10-21 03:00:00 4.9 2 Nordeste 10 Sudeste 0 -- -- 94
2019-10-21 02:00:00 5.4 7 Sur 10 Sur 0 -- -- 94
2019-10-21 01:00:00 5.4 4 Sudeste 9 Sur 0 -- -- 93
2019-10-21 00:00:00 5.6 2 Sudoeste 9 Sur 0 -- -- 93
2019-10-20 23:00:00 5.7 3 Sudeste 6 Sudeste 0 -- -- 91
2019-10-20 22:00:00 6.1 5 Este 8 Este 0 -- -- 89
2019-10-20 21:00:00 6.1 4 Este 9 Norte 0 -- -- 91
2019-10-20 20:00:00 6 5 Norte 14 Norte 0 -- -- 91
2019-10-20 19:00:00 6.1 9 Norte 34 Noroeste 0.4 -- -- 89
2019-10-20 18:00:00 6.2 14 Noroeste 28 Noroeste 0 -- -- 87
2019-10-20 17:00:00 6.5 10 Noroeste 31 Noroeste 0 -- -- 91
2019-10-20 16:00:00 7.1 17 Noroeste 32 Norte 0 -- -- 90
2019-10-20 15:00:00 6.8 13 Noroeste 30 Norte 0.4 -- -- 90
2019-10-20 14:00:00 6.9 17 Norte 33 Norte 0 -- -- 87
2019-10-20 13:00:00 6.9 19 Norte 36 Norte 0 -- -- 87
2019-10-20 12:00:00 7 19 Norte 33 Norte 0 -- -- 87
2019-10-20 11:00:00 7.2 15 Norte 27 Norte 0 -- -- 93
2019-10-20 10:00:00 7.3 6 Oeste 19 Sudoeste 0 -- -- 93
2019-10-20 09:00:00 7.3 13 Sudoeste 21 Sudoeste 0 -- -- 94
2019-10-20 08:00:00 7.1 12 Sudoeste 39 Sudoeste 0.4 -- -- 94
2019-10-20 07:00:00 7.7 23 Sudoeste 33 Sudoeste 0 -- -- 92
2019-10-20 06:00:00 7.8 12 Sudoeste 30 Sur 0 -- -- 89
2019-10-20 05:00:00 7.7 18 Sudoeste 27 Sudoeste 0 -- -- 90
2019-10-20 04:00:00 8 13 Sur 35 Sudoeste 0 -- -- 90
2019-10-20 03:00:00 9.5 18 Sudoeste 28 Sudoeste 0 -- -- 90
2019-10-20 02:00:00 10.3 12 Sur 30 Sur 0 -- -- 93
2019-10-20 01:00:00 10.6 16 Sudoeste 31 Sudoeste 0.6 -- -- 92
2019-10-20 00:00:00 11.7 18 Sudoeste 40 Sur 0 -- -- 87
2019-10-19 23:00:00 11.5 14 Sur 28 Sur 0 -- -- 91
2019-10-19 22:00:00 11.4 17 Sur 25 Sur 1.4 -- -- 91
2019-10-19 21:00:00 11.4 10 Sur 18 Sur 0.8 -- -- 91
2019-10-19 20:00:00 11 12 Sur 26 Sudoeste 1.6 -- -- 91
2019-10-19 19:00:00 11.8 13 Sur 25 Sur 3.6 -- -- 85
2019-10-19 18:00:00 14.8 14 Sur 34 Sur 0 -- -- 60
2019-10-19 17:00:00 14.4 20 Sur 27 Sur 0 -- -- 62
2019-10-19 16:00:00 14 24 Sur 41 Sur 0 -- -- 62
2019-10-19 15:00:00 13.2 17 Sur 32 Sudoeste 0 -- -- 70
2019-10-19 14:00:00 12.6 22 Sudoeste 33 Sur 0 -- -- 72
2019-10-19 13:00:00 12 22 Sur 35 Sur 0 -- -- 75
2019-10-19 12:00:00 11.3 15 Sudoeste 30 Sur 0 -- -- 83
2019-10-19 11:00:00 10.9 18 Sur 38 Sur 0 -- -- 82
2019-10-19 10:00:00 10.6 18 Sur 28 Sudoeste 0 -- -- 85
2019-10-19 09:00:00 9.9 17 Sur 24 Sur 0 -- -- 90
2019-10-19 08:00:00 9.9 14 Sur 24 Sur 0 -- -- 88
2019-10-19 07:00:00 10.1 15 Sur 23 Sur 0 -- -- 88
2019-10-19 06:00:00 10.3 12 Sur 23 Sur 0 -- -- 87
2019-10-19 05:00:00 10.5 14 Sur 30 Sur 0 -- -- 84
2019-10-19 04:00:00 10.4 15 Sur 22 Sudoeste 0 -- -- 83
2019-10-19 03:00:00 10.5 11 Sur 16 Sur 0 -- -- 83
2019-10-19 02:00:00 10.9 7 Sur 19 Sur 0 -- -- 80
2019-10-19 01:00:00 11.1 13 Sudoeste 24 Sur 0 -- -- 81
2019-10-19 00:00:00 11 14 Sudoeste 22 Sur 0 -- -- 83
2019-10-18 23:00:00 10.5 14 Sur 19 Sur 0 -- -- 84
2019-10-18 22:00:00 10.9 10 Sur 16 Sur 0 -- -- 82
2019-10-18 21:00:00 12.1 10 Sur 18 Sudoeste 0 -- -- 78
2019-10-18 20:00:00 12.8 10 Sudoeste 21 Sudoeste 0 -- -- 77
2019-10-18 19:00:00 13.7 15 Sudoeste 28 Sudoeste 0 -- -- 71
2019-10-18 18:00:00 14.3 17 Sudoeste 43 Sudoeste 0 -- -- 68
2019-10-18 17:00:00 14.9 22 Sudoeste 35 Sudoeste 0 -- -- 66
2019-10-18 16:00:00 14.6 18 Sudoeste 40 Sudoeste 0 -- -- 69
2019-10-18 15:00:00 15 21 Sudoeste 37 Sudoeste 0 -- -- 70
2019-10-18 14:00:00 14.7 20 Sudoeste 37 Sudoeste 0 -- -- 73
2019-10-18 13:00:00 14.3 18 Sudoeste 37 Sudoeste 0 -- -- 76
2019-10-18 12:00:00 13.6 13 Sudoeste 22 Sudoeste 0 -- -- 79
2019-10-18 11:00:00 12.5 11 Sudoeste 19 Sudoeste 0 -- -- 85
2019-10-18 10:00:00 11.8 8 Sudoeste 17 Sudoeste 0 -- -- 93
2019-10-18 09:00:00 11.5 4 Sudoeste 9 Sudoeste 0 -- -- 94
2019-10-18 08:00:00 12 4 Sudoeste 10 Oeste 0 -- -- 92
2019-10-18 07:00:00 12.5 5 Sudoeste 15 Sudoeste 0 -- -- 91
2019-10-18 06:00:00 12.8 8 Sudoeste 19 Sudoeste 0 -- -- 93
2019-10-18 05:00:00 12.8 10 Sudoeste 21 Sudoeste 0 -- -- 92
2019-10-18 04:00:00 12.7 13 Sudoeste 29 Sudoeste 1.2 -- -- 92
2019-10-18 03:00:00 13.6 17 Sur 27 Sur 0 -- -- 94
2019-10-18 02:00:00 13.6 17 Sudoeste 31 Sudoeste 0.4 -- -- 93
2019-10-18 01:00:00 13.8 19 Sudoeste 30 Sudoeste 0 -- -- 92
2019-10-18 00:00:00 13.6 13 Sur 22 Sudoeste 0 -- -- 91
2019-10-17 23:00:00 14 12 Sur 19 Sur 0 -- -- 89
2019-10-17 22:00:00 13.8 10 Sur 19 Oeste 0 -- -- 87
2019-10-17 21:00:00 14.9 9 Sudoeste 21 Sur 0 -- -- 81
2019-10-17 20:00:00 15.1 16 Sur 21 Sudoeste 0 -- -- 80
2019-10-17 19:00:00 16.5 12 Sudoeste 31 Sudoeste 0 -- -- 73
2019-10-17 18:00:00 17.7 17 Sudoeste 30 Sudoeste 0 -- -- 67
2019-10-17 17:00:00 16.6 10 Oeste 21 Oeste 0 -- -- 73
2019-10-17 16:00:00 16.1 13 Sudoeste 29 Sudoeste 0 -- -- 78
2019-10-17 15:00:00 15.5 19 Sudoeste 30 Sudoeste 0 -- -- 83
2019-10-17 14:00:00 14.3 15 Sudoeste 29 Sudoeste 0 -- -- 89
2019-10-17 13:00:00 12.8 16 Sudoeste 32 Sudoeste 0 -- -- 94
2019-10-17 12:00:00 11.6 19 Sudoeste 31 Sudoeste 0 -- -- 94
2019-10-17 11:00:00 10.7 21 Sur 33 Sudoeste 0.2 -- -- 95
2019-10-17 10:00:00 10.2 17 Sur 28 Sur 0.6 -- -- 96
2019-10-17 09:00:00 9.8 18 Sur 29 Sur 0 -- -- 96
2019-10-17 08:00:00 9.6 19 Sur 27 Sur 0 -- -- 95
2019-10-17 07:00:00 9.5 15 Sur 24 Sur 0 -- -- 95
2019-10-17 06:00:00 9.5 16 Sur 21 Sur 1 -- -- 93
2019-10-17 05:00:00 9.8 14 Sur 20 Sur 2.6 -- -- 92
2019-10-17 04:00:00 11.1 8 Sur 12 Sur 0.4 -- -- 87
2019-10-17 03:00:00 11.5 5 Sur 9 Sudeste 0.2 -- -- 88
2019-10-17 02:00:00 11.3 5 Sur 13 Sudoeste 0 -- -- 90
2019-10-17 01:00:00 11.5 9 Sudoeste 21 Sudoeste 0 -- -- 88
2019-10-17 00:00:00 13.7 11 Sudoeste 23 Sudoeste 0 -- -- 72
2019-10-16 23:00:00 14.2 13 Sudoeste 21 Sur 0 -- -- 58
2019-10-16 22:00:00 14.3 14 Sur 19 Sur 0 -- -- 54
2019-10-16 21:00:00 14.5 10 Sur 14 Sur 0 -- -- 56
2019-10-16 20:00:00 15.2 12 Sudoeste 24 Sudoeste 0 -- -- 54
2019-10-16 19:00:00 15.8 16 Sudoeste 26 Sudoeste 0 -- -- 52
2019-10-16 18:00:00 16.2 15 Sudoeste 31 Sudoeste 0 -- -- 51
2019-10-16 17:00:00 15.9 14 Sudoeste 32 Sudoeste 0 -- -- 52
2019-10-16 16:00:00 16.5 15 Sudoeste 36 Sudoeste 0 -- -- 49
2019-10-16 15:00:00 15.2 15 Sudoeste 32 Sudoeste 0 -- -- 57
2019-10-16 14:00:00 15.3 20 Sudoeste 36 Sudoeste 0 -- -- 56
2019-10-16 13:00:00 13.4 20 Sudoeste 37 Sudoeste 0 -- -- 62
2019-10-16 12:00:00 12.7 23 Sudoeste 37 Sudoeste 0 -- -- 65
2019-10-16 11:00:00 11 22 Sudoeste 37 Sur 0 -- -- 73
2019-10-16 10:00:00 9.3 19 Sur 32 Sur 0 -- -- 80
2019-10-16 09:00:00 8.2 18 Sur 28 Sur 0 -- -- 86
2019-10-16 08:00:00 7.4 17 Sur 24 Sur 0 -- -- 87
2019-10-16 07:00:00 7.8 15 Sur 24 Sur 0 -- -- 86
2019-10-16 06:00:00 7.2 14 Sur 21 Sur 0 -- -- 87
2019-10-16 05:00:00 7.3 13 Sur 19 Sur 0 -- -- 86
2019-10-16 04:00:00 8.1 12 Sur 21 Sudoeste 0 -- -- 83
2019-10-16 03:00:00 8.8 13 Sur 26 Sur 0 -- -- 80
2019-10-16 02:00:00 9.4 15 Sur 21 Sudoeste 0 -- -- 78
2019-10-16 01:00:00 9.7 16 Sudoeste 23 Sur 0 -- -- 72
2019-10-16 00:00:00 9.9 13 Sur 19 Sur 0 -- -- 69
2019-10-15 23:00:00 9.9 14 Sur 19 Sur 0 -- -- 69
2019-10-15 22:00:00 10.2 9 Sudoeste 14 Sudoeste 0 -- -- 67
2019-10-15 21:00:00 10.7 9 Sudoeste 18 Sudoeste 0 -- -- 65
2019-10-15 20:00:00 11 10 Sudoeste 23 Sudoeste 0 -- -- 62
2019-10-15 19:00:00 11.9 13 Sudoeste 28 Sudoeste 0 -- -- 57
2019-10-15 18:00:00 12.5 15 Sudoeste 30 Sudoeste 0 -- -- 53
2019-10-15 17:00:00 12.9 14 Sudoeste 31 Sudoeste 0 -- -- 50
2019-10-15 16:00:00 11.8 18 Sudoeste 33 Oeste 0 -- -- 56
2019-10-15 15:00:00 11.7 18 Sudoeste 33 Sudoeste 0 -- -- 60
2019-10-15 14:00:00 11.3 19 Sudoeste 32 Sudoeste 0 -- -- 63
2019-10-15 13:00:00 10 15 Sudoeste 27 Sudoeste 0 -- -- 71
2019-10-15 12:00:00 7.7 17 Sudoeste 26 Sudoeste 0 -- -- 82
2019-10-15 11:00:00 7 11 Sur 19 Sudoeste 0 -- -- 89
2019-10-15 10:00:00 5.1 12 Sudoeste 22 Sudoeste 0 -- -- 93
2019-10-15 09:00:00 4.3 14 Sudoeste 21 Sur 0 -- -- 95
2019-10-15 08:00:00 3 9 Sudoeste 15 Sudoeste 0 -- -- 95
2019-10-15 07:00:00 3.2 9 Sudoeste 16 Sudoeste 0 -- -- 94
2019-10-15 06:00:00 3.2 8 Sudoeste 14 Sudoeste 0 -- -- 93
2019-10-15 05:00:00 3.6 10 Sur 21 Sudoeste 0 -- -- 92
2019-10-15 04:00:00 4.2 12 Sudoeste 20 Sudoeste 0 -- -- 91
2019-10-15 03:00:00 4.4 11 Sur 22 Sudoeste 0 -- -- 91
2019-10-15 02:00:00 4.9 13 Sudoeste 26 Sudoeste 0 -- -- 90
2019-10-15 01:00:00 5.5 11 Sudoeste 22 Sudoeste 0 -- -- 90
2019-10-15 00:00:00 6.4 12 Sudoeste 28 Oeste 0 -- -- 82
2019-10-14 23:00:00 7.6 15 Sudoeste 34 Sudoeste 0 -- -- 88
2019-10-14 22:00:00 7.9 20 Sudoeste 32 Sudoeste 0 -- -- 88
2019-10-14 21:00:00 7.9 14 Sudoeste 26 Sudoeste 0 -- -- 89
2019-10-14 20:00:00 8.2 21 Sudoeste 43 Sudoeste 0 -- -- 84
2019-10-14 19:00:00 8.8 21 Sudoeste 43 Sudoeste 0.4 -- -- 88
2019-10-14 18:00:00 9.4 27 Sudoeste 42 Oeste 0.6 -- -- 84
2019-10-14 17:00:00 11 20 Sudoeste 47 Sudoeste 0.2 -- -- 82
2019-10-14 16:00:00 13.8 18 Oeste 47 Sur 0 -- -- 64
2019-10-14 15:00:00 15.4 25 Sudoeste 45 Sudoeste 0 -- -- 50
2019-10-14 14:00:00 15.1 23 Sudoeste 42 Sudoeste 0 -- -- 57
2019-10-14 13:00:00 12.5 22 Sudoeste 37 Oeste 0 -- -- 75
2019-10-14 12:00:00 11.7 21 Sudoeste 57 Sudoeste 0.2 -- -- 84
2019-10-14 11:00:00 14.5 23 Sudoeste 39 Sudoeste 0.2 -- -- 73
2019-10-14 10:00:00 17 19 Sudoeste 44 Sur 0 -- -- 57
2019-10-14 09:00:00 16.9 26 Sur 39 Sur 0 -- -- 53
2019-10-14 08:00:00 16.7 21 Sur 39 Sudeste 0 -- -- 53
2019-10-14 07:00:00 17.3 22 Sudeste 39 Sur 0 -- -- 49
2019-10-14 06:00:00 17.3 19 Sur 33 Sur 0 -- -- 52
2019-10-14 05:00:00 16.8 15 Sur 28 Sur 0 -- -- 53
2019-10-14 04:00:00 16.5 14 Sur 23 Sur 0 -- -- 53
2019-10-14 03:00:00 15.8 17 Sur 30 Sur 0 -- -- 54
2019-10-14 02:00:00 15.1 22 Sur 30 Sur 0 -- -- 54
2019-10-14 01:00:00 15 13 Sur 27 Sur 0 -- -- 52
2019-10-14 00:00:00 15.4 18 Sur 30 Sur 0 -- -- 51